createdAt,value
2018-12-11T00:01:11.926Z,20.44
2018-12-11T00:06:15.235Z,20.45
2018-12-11T00:11:18.541Z,20.44
2018-12-11T00:16:21.837Z,20.48
2018-12-11T00:21:25.240Z,20.46
2018-12-11T00:26:28.537Z,20.47
2018-12-11T00:31:31.844Z,20.47
2018-12-11T00:36:35.140Z,20.47
2018-12-11T00:41:38.468Z,20.47
2018-12-11T00:46:41.761Z,20.46
2018-12-11T00:51:45.456Z,20.48
2018-12-11T00:56:48.793Z,20.49
2018-12-11T01:01:52.109Z,20.49
2018-12-11T01:06:55.410Z,20.52
2018-12-11T01:11:58.737Z,20.61
2018-12-11T01:17:02.032Z,20.74
2018-12-11T01:22:05.326Z,20.77
2018-12-11T01:27:08.624Z,20.74
2018-12-11T01:32:11.961Z,20.58
2018-12-11T01:37:15.294Z,20.40
2018-12-11T01:42:18.633Z,20.22
2018-12-11T01:47:22.290Z,20.14
2018-12-11T01:52:25.601Z,20.09
2018-12-11T01:57:28.916Z,20.07
2018-12-11T02:02:32.239Z,20.03
2018-12-11T02:07:35.661Z,19.97
2018-12-11T02:12:38.959Z,19.96
2018-12-11T02:17:42.293Z,19.92
2018-12-11T02:22:45.645Z,19.90
2018-12-11T02:27:48.965Z,19.85
2018-12-11T02:32:52.261Z,19.86
2018-12-11T02:37:55.597Z,19.87
2018-12-11T02:42:58.905Z,19.82
2018-12-11T02:48:02.287Z,19.81
2018-12-11T02:53:05.591Z,19.78
2018-12-11T02:58:08.893Z,19.78
2018-12-11T03:03:13.288Z,19.74
2018-12-11T03:08:16.677Z,19.72
2018-12-11T03:13:20.008Z,19.68
2018-12-11T03:18:23.329Z,19.65
2018-12-11T03:23:26.657Z,19.62
2018-12-11T03:28:30.020Z,19.59
2018-12-11T03:33:33.333Z,19.56
2018-12-11T03:38:36.653Z,19.54
2018-12-11T03:43:39.982Z,19.49
2018-12-11T03:48:43.309Z,19.56
2018-12-11T03:53:46.644Z,19.48
2018-12-11T03:58:49.965Z,19.45
2018-12-11T04:03:53.287Z,19.42
2018-12-11T04:08:56.606Z,19.41
2018-12-11T04:13:59.918Z,19.38
2018-12-11T04:19:03.289Z,19.37
2018-12-11T04:24:06.608Z,19.36
2018-12-11T04:29:09.917Z,19.35
2018-12-11T04:34:13.226Z,19.36
2018-12-11T04:39:16.539Z,19.34
2018-12-11T04:44:19.878Z,19.37
2018-12-11T04:49:23.197Z,19.39
2018-12-11T04:54:26.546Z,19.35
2018-12-11T04:59:29.893Z,19.32
2018-12-11T05:04:33.243Z,19.29
2018-12-11T05:09:36.909Z,19.29
2018-12-11T05:14:40.277Z,19.28
2018-12-11T05:19:43.628Z,19.26
2018-12-11T05:24:46.994Z,19.26
2018-12-11T05:29:50.432Z,19.24
2018-12-11T05:34:53.793Z,19.24
2018-12-11T05:39:57.181Z,19.23
2018-12-11T05:45:00.540Z,19.22
2018-12-11T05:50:04.488Z,19.23
2018-12-11T05:55:07.813Z,19.25
2018-12-11T06:00:12.363Z,19.24
2018-12-11T06:05:15.724Z,19.25
2018-12-11T06:10:19.072Z,19.25
2018-12-11T06:15:22.396Z,19.25
2018-12-11T06:20:25.832Z,19.27
2018-12-11T06:25:29.173Z,19.26
2018-12-11T06:30:32.509Z,19.27
2018-12-11T06:35:35.864Z,19.29
2018-12-11T06:40:39.224Z,19.27
2018-12-11T06:45:42.569Z,19.29
2018-12-11T06:50:45.925Z,19.30
2018-12-11T06:55:49.257Z,19.31
2018-12-11T07:00:52.600Z,19.30
2018-12-11T07:05:55.925Z,19.30
2018-12-11T07:10:59.312Z,19.29
2018-12-11T07:16:02.655Z,19.29
2018-12-11T07:21:05.981Z,19.28
2018-12-11T07:26:09.376Z,19.27
2018-12-11T07:31:12.716Z,19.27
2018-12-11T07:36:16.046Z,19.27
2018-12-11T07:41:19.376Z,19.27
2018-12-11T07:46:22.717Z,19.26
2018-12-11T07:51:26.053Z,19.25
2018-12-11T07:56:29.394Z,18.82
2018-12-11T08:01:32.776Z,18.52
2018-12-11T08:06:36.100Z,18.39
2018-12-11T08:11:39.487Z,18.32
2018-12-11T08:16:43.177Z,17.81
2018-12-11T08:21:46.473Z,15.71
2018-12-11T08:26:49.764Z,15.59
2018-12-11T08:31:53.109Z,18.34
2018-12-11T08:36:56.390Z,19.12
2018-12-11T08:41:59.755Z,19.54
2018-12-11T08:47:03.053Z,19.78
2018-12-11T08:52:06.373Z,19.81
2018-12-11T08:57:09.663Z,19.77
2018-12-11T09:02:12.960Z,19.72
2018-12-11T09:07:16.290Z,19.65
2018-12-11T09:12:19.606Z,19.56
2018-12-11T09:17:22.922Z,19.49
2018-12-11T09:22:26.273Z,19.41
2018-12-11T09:27:29.571Z,19.35
2018-12-11T09:32:32.880Z,19.29
2018-12-11T09:37:36.224Z,19.24
2018-12-11T09:42:39.583Z,19.20
2018-12-11T09:47:42.892Z,19.16
2018-12-11T09:52:46.497Z,19.15
2018-12-11T09:57:49.949Z,19.12
2018-12-11T10:02:53.249Z,19.11
2018-12-11T10:07:56.568Z,19.03
2018-12-11T10:12:59.885Z,19.10
2018-12-11T10:18:03.204Z,19.10
2018-12-11T10:23:07.156Z,19.27
2018-12-11T10:28:10.520Z,19.53
2018-12-11T10:33:13.820Z,19.68
2018-12-11T10:38:17.137Z,19.69
2018-12-11T10:43:20.454Z,19.63
2018-12-11T10:48:23.840Z,19.57
2018-12-11T10:53:27.174Z,19.50
2018-12-11T10:58:30.496Z,19.45
2018-12-11T11:03:33.834Z,19.39
2018-12-11T11:08:37.146Z,19.36
2018-12-11T11:13:40.533Z,19.32
2018-12-11T11:18:44.994Z,19.29
2018-12-11T11:23:48.385Z,19.28
2018-12-11T11:28:51.750Z,19.28
2018-12-11T11:33:57.044Z,19.27
2018-12-11T11:39:00.441Z,19.30
2018-12-11T11:44:03.900Z,19.29
2018-12-11T11:49:07.189Z,19.28
2018-12-11T11:54:10.464Z,19.26
2018-12-11T11:59:13.784Z,19.27
2018-12-11T12:04:17.069Z,19.29
2018-12-11T12:09:20.369Z,19.29
2018-12-11T12:14:23.886Z,19.30
2018-12-11T12:19:27.182Z,19.36
2018-12-11T12:24:30.493Z,19.30
2018-12-11T12:29:33.871Z,19.32
2018-12-11T12:34:37.161Z,19.45
2018-12-11T12:39:40.457Z,19.48
2018-12-11T12:44:43.790Z,19.54
2018-12-11T12:49:50.501Z,19.53
2018-12-11T12:54:52.569Z,19.56
2018-12-11T12:59:55.940Z,13.35
2018-12-11T13:04:59.353Z,10.04
2018-12-11T13:10:03.837Z,9.66
2018-12-11T13:15:08.042Z,8.27
2018-12-11T13:20:11.380Z,9.87
2018-12-11T13:25:14.692Z,14.70
2018-12-11T13:30:17.997Z,16.38
2018-12-11T13:35:21.425Z,17.45
2018-12-11T13:40:24.779Z,18.09
2018-12-11T13:45:28.057Z,18.52
2018-12-11T13:50:31.340Z,18.87
2018-12-11T13:55:34.656Z,19.11
2018-12-11T14:00:37.992Z,19.19
2018-12-11T14:05:41.280Z,19.27
2018-12-11T14:10:44.578Z,19.26
2018-12-11T14:15:47.949Z,19.24
2018-12-11T14:20:51.390Z,19.31
2018-12-11T14:25:54.685Z,19.38
2018-12-11T14:30:58.108Z,19.40
2018-12-11T14:36:01.408Z,19.35
2018-12-11T14:41:04.725Z,19.32
2018-12-11T14:46:07.999Z,19.34
2018-12-11T14:51:11.261Z,19.41
2018-12-11T14:56:14.545Z,19.54
2018-12-11T15:01:17.991Z,19.66
2018-12-11T15:06:21.355Z,19.77
2018-12-11T15:11:24.658Z,19.79
2018-12-11T15:16:28.016Z,19.77
2018-12-11T15:21:31.309Z,19.73
2018-12-11T15:26:34.625Z,19.69
2018-12-11T15:31:37.932Z,19.67
2018-12-11T15:36:42.150Z,19.72
2018-12-11T15:41:45.535Z,19.66
2018-12-11T15:46:49.529Z,19.69
2018-12-11T15:51:52.836Z,19.81
2018-12-11T15:56:56.513Z,19.96
2018-12-11T16:01:59.813Z,20.11
2018-12-11T16:07:03.109Z,20.15
2018-12-11T16:12:06.976Z,20.18
2018-12-11T16:17:10.259Z,20.21
2018-12-11T16:22:13.589Z,20.20
2018-12-11T16:27:17.256Z,20.23
2018-12-11T16:32:20.572Z,20.25
2018-12-11T16:37:24.153Z,20.24
2018-12-11T16:42:27.446Z,20.25
2018-12-11T16:47:30.734Z,20.28
2018-12-11T16:52:34.060Z,20.26
2018-12-11T16:57:37.344Z,20.23
2018-12-11T17:02:40.686Z,20.34
2018-12-11T17:07:44.156Z,20.30
2018-12-11T17:12:47.756Z,20.29
2018-12-11T17:17:53.192Z,20.30
2018-12-11T17:22:56.547Z,20.29
2018-12-11T17:27:59.855Z,20.31
2018-12-11T17:33:03.179Z,20.31
2018-12-11T17:38:06.596Z,20.32
2018-12-11T17:43:09.893Z,20.32
2018-12-11T17:48:13.668Z,20.33
2018-12-11T17:53:16.969Z,20.47
2018-12-11T17:58:20.315Z,20.65
2018-12-11T18:03:23.637Z,20.71
2018-12-11T18:08:26.938Z,20.72
2018-12-11T18:13:30.395Z,20.67
2018-12-11T18:18:33.712Z,20.67
2018-12-11T18:23:37.030Z,20.69
2018-12-11T18:28:40.326Z,20.67
2018-12-11T18:33:43.634Z,20.61
2018-12-11T18:38:46.950Z,20.67
2018-12-11T18:43:50.251Z,20.57
2018-12-11T18:48:53.605Z,20.51
2018-12-11T18:53:57.018Z,20.48
2018-12-11T18:59:00.426Z,20.45
2018-12-11T19:04:03.741Z,20.46
2018-12-11T19:09:07.815Z,20.46
2018-12-11T19:14:11.189Z,20.44
2018-12-11T19:19:15.625Z,20.43
2018-12-11T19:24:31.061Z,20.43
2018-12-11T19:29:34.385Z,20.42
2018-12-11T19:34:37.868Z,20.42
2018-12-11T19:39:41.172Z,20.47
2018-12-11T19:44:44.501Z,20.65
2018-12-11T19:49:47.892Z,20.70
2018-12-11T19:54:51.218Z,20.73
2018-12-11T19:59:54.524Z,20.66
2018-12-11T20:04:57.854Z,20.79
2018-12-11T20:10:06.605Z,20.76
2018-12-11T20:15:09.916Z,20.72
2018-12-11T20:20:23.248Z,20.73
2018-12-11T20:25:26.539Z,20.77
2018-12-11T20:30:29.845Z,20.78
2018-12-11T20:35:33.457Z,20.67
2018-12-11T20:40:36.988Z,20.69
2018-12-11T20:45:40.306Z,20.74
2018-12-11T20:50:43.614Z,20.78
2018-12-11T20:55:46.930Z,20.65
2018-12-11T21:00:52.118Z,20.63
2018-12-11T21:05:55.449Z,20.63
2018-12-11T21:10:58.889Z,20.61
2018-12-11T21:16:02.245Z,20.66
2018-12-11T21:21:05.658Z,20.64
2018-12-11T21:26:08.968Z,20.62
2018-12-11T21:31:12.273Z,20.64
2018-12-11T21:36:15.615Z,20.65
2018-12-11T21:41:18.936Z,20.64
2018-12-11T21:46:22.276Z,20.73
2018-12-11T21:51:25.611Z,20.66
2018-12-11T21:56:28.919Z,20.67
2018-12-11T22:01:32.231Z,20.67
2018-12-11T22:06:35.578Z,20.66
2018-12-11T22:11:38.878Z,20.68
2018-12-11T22:16:42.184Z,20.68
2018-12-11T22:21:45.490Z,20.66
2018-12-11T22:26:48.920Z,20.69
2018-12-11T22:31:52.230Z,20.69
2018-12-11T22:36:55.599Z,20.67
2018-12-11T22:41:59.037Z,20.67
2018-12-11T22:47:02.330Z,20.70
2018-12-11T22:52:05.630Z,20.66
2018-12-11T22:57:08.921Z,20.68
2018-12-11T23:02:12.222Z,20.70
2018-12-11T23:07:15.501Z,20.71
2018-12-11T23:12:19.317Z,20.68
2018-12-11T23:17:22.606Z,20.69
2018-12-11T23:22:25.896Z,20.68
2018-12-11T23:27:29.272Z,20.67
2018-12-11T23:32:32.556Z,20.66
2018-12-11T23:37:35.841Z,20.68
2018-12-11T23:42:39.138Z,20.69
2018-12-11T23:47:42.473Z,20.69
2018-12-11T23:52:45.760Z,20.69
2018-12-11T23:57:49.028Z,20.70
